sensor_id;sensor_type;location;lat;lon;timestamp;temperature;humidity
46758;DHT22;32509;47.750;-3.396;2022-07-15T00:02:20;20.50;99.90
46758;DHT22;32509;47.750;-3.396;2022-07-15T00:04:46;20.50;99.90
46758;DHT22;32509;47.750;-3.396;2022-07-15T00:07:12;20.40;99.90
46758;DHT22;32509;47.750;-3.396;2022-07-15T00:09:39;20.40;99.90
46758;DHT22;32509;47.750;-3.396;2022-07-15T00:12:23;20.30;99.90
46758;DHT22;32509;47.750;-3.396;2022-07-15T00:14:49;20.10;99.90
46758;DHT22;32509;47.750;-3.396;2022-07-15T00:17:16;20.20;99.90
46758;DHT22;32509;47.750;-3.396;2022-07-15T00:19:42;20.20;99.90
46758;DHT22;32509;47.750;-3.396;2022-07-15T00:22:08;20.20;99.90
46758;DHT22;32509;47.750;-3.396;2022-07-15T00:24:34;20.20;99.90
46758;DHT22;32509;47.750;-3.396;2022-07-15T00:26:59;20.30;99.90
46758;DHT22;32509;47.750;-3.396;2022-07-15T00:29:27;20.30;99.90
46758;DHT22;32509;47.750;-3.396;2022-07-15T00:31:53;20.30;99.90
46758;DHT22;32509;47.750;-3.396;2022-07-15T00:34:20;20.30;99.90
46758;DHT22;32509;47.750;-3.396;2022-07-15T00:36:45;20.20;99.90
46758;DHT22;32509;47.750;-3.396;2022-07-15T00:39:11;20.10;99.90
46758;DHT22;32509;47.750;-3.396;2022-07-15T00:41:40;20.10;99.90
46758;DHT22;32509;47.750;-3.396;2022-07-15T00:44:06;20.10;99.90
46758;DHT22;32509;47.750;-3.396;2022-07-15T00:46:33;20.10;99.90
46758;DHT22;32509;47.750;-3.396;2022-07-15T00:49:00;20.10;99.90
46758;DHT22;32509;47.750;-3.396;2022-07-15T00:51:27;20.10;99.90
46758;DHT22;32509;47.750;-3.396;2022-07-15T00:53:54;20.00;99.90
46758;DHT22;32509;47.750;-3.396;2022-07-15T00:56:23;20.00;99.90
46758;DHT22;32509;47.750;-3.396;2022-07-15T00:58:51;20.10;99.90
46758;DHT22;32509;47.750;-3.396;2022-07-15T01:01:20;20.00;99.90
46758;DHT22;32509;47.750;-3.396;2022-07-15T01:03:50;19.90;99.90
46758;DHT22;32509;47.750;-3.396;2022-07-15T01:06:16;19.90;99.90
46758;DHT22;32509;47.750;-3.396;2022-07-15T01:08:42;19.80;99.90
46758;DHT22;32509;47.750;-3.396;2022-07-15T01:11:08;19.90;99.90
46758;DHT22;32509;47.750;-3.396;2022-07-15T01:13:34;19.80;99.90
46758;DHT22;32509;47.750;-3.396;2022-07-15T01:16:00;19.90;99.90
46758;DHT22;32509;47.750;-3.396;2022-07-15T01:18:26;19.90;99.90
46758;DHT22;32509;47.750;-3.396;2022-07-15T01:20:52;19.90;99.90
46758;DHT22;32509;47.750;-3.396;2022-07-15T01:23:18;19.90;99.90
46758;DHT22;32509;47.750;-3.396;2022-07-15T01:25:43;20.00;99.90
46758;DHT22;32509;47.750;-3.396;2022-07-15T01:28:10;19.90;99.90
46758;DHT22;32509;47.750;-3.396;2022-07-15T01:30:36;19.90;99.90
46758;DHT22;32509;47.750;-3.396;2022-07-15T01:33:02;19.90;99.90
46758;DHT22;32509;47.750;-3.396;2022-07-15T01:35:27;19.90;99.90
46758;DHT22;32509;47.750;-3.396;2022-07-15T01:37:54;19.90;99.90
46758;DHT22;32509;47.750;-3.396;2022-07-15T01:40:20;20.00;99.90
46758;DHT22;32509;47.750;-3.396;2022-07-15T01:42:46;19.90;99.90
46758;DHT22;32509;47.750;-3.396;2022-07-15T01:45:12;19.80;99.90
46758;DHT22;32509;47.750;-3.396;2022-07-15T01:47:45;19.90;99.90
46758;DHT22;32509;47.750;-3.396;2022-07-15T01:50:11;19.90;99.90
46758;DHT22;32509;47.750;-3.396;2022-07-15T01:52:38;19.80;99.90
46758;DHT22;32509;47.750;-3.396;2022-07-15T01:55:05;19.80;99.90
46758;DHT22;32509;47.750;-3.396;2022-07-15T01:57:31;19.80;99.90
46758;DHT22;32509;47.750;-3.396;2022-07-15T01:59:57;19.80;99.90
46758;DHT22;32509;47.750;-3.396;2022-07-15T02:02:23;19.70;99.90
46758;DHT22;32509;47.750;-3.396;2022-07-15T02:04:49;19.80;99.90
46758;DHT22;32509;47.750;-3.396;2022-07-15T02:07:15;19.70;99.90
46758;DHT22;32509;47.750;-3.396;2022-07-15T02:09:41;19.80;99.90
46758;DHT22;32509;47.750;-3.396;2022-07-15T02:12:07;19.70;99.90
46758;DHT22;32509;47.750;-3.396;2022-07-15T02:14:34;19.80;99.90
46758;DHT22;32509;47.750;-3.396;2022-07-15T02:17:03;19.70;99.90
46758;DHT22;32509;47.750;-3.396;2022-07-15T02:19:29;19.70;99.90
46758;DHT22;32509;47.750;-3.396;2022-07-15T02:21:55;19.70;99.90
46758;DHT22;32509;47.750;-3.396;2022-07-15T02:24:21;19.70;99.90
46758;DHT22;32509;47.750;-3.396;2022-07-15T02:26:47;19.70;99.90
46758;DHT22;32509;47.750;-3.396;2022-07-15T02:29:14;19.70;99.90
46758;DHT22;32509;47.750;-3.396;2022-07-15T02:31:40;19.70;99.90
46758;DHT22;32509;47.750;-3.396;2022-07-15T02:34:07;19.70;99.90
46758;DHT22;32509;47.750;-3.396;2022-07-15T02:36:33;19.70;99.90
46758;DHT22;32509;47.750;-3.396;2022-07-15T02:38:59;19.70;99.90
46758;DHT22;32509;47.750;-3.396;2022-07-15T02:41:24;19.70;99.90
46758;DHT22;32509;47.750;-3.396;2022-07-15T02:43:51;19.70;99.90
46758;DHT22;32509;47.750;-3.396;2022-07-15T02:46:17;19.70;99.90
46758;DHT22;32509;47.750;-3.396;2022-07-15T02:48:43;19.60;99.90
46758;DHT22;32509;47.750;-3.396;2022-07-15T02:51:09;19.60;99.90
46758;DHT22;32509;47.750;-3.396;2022-07-15T02:53:35;19.60;99.90
46758;DHT22;32509;47.750;-3.396;2022-07-15T02:56:02;19.60;99.90
46758;DHT22;32509;47.750;-3.396;2022-07-15T02:58:30;19.60;99.90
46758;DHT22;32509;47.750;-3.396;2022-07-15T03:00:57;19.60;99.90
46758;DHT22;32509;47.750;-3.396;2022-07-15T03:03:23;19.60;99.90
46758;DHT22;32509;47.750;-3.396;2022-07-15T03:05:49;19.70;99.90
46758;DHT22;32509;47.750;-3.396;2022-07-15T03:08:16;19.70;99.90
46758;DHT22;32509;47.750;-3.396;2022-07-15T03:10:42;19.70;99.90
46758;DHT22;32509;47.750;-3.396;2022-07-15T03:13:08;19.60;99.90
46758;DHT22;32509;47.750;-3.396;2022-07-15T03:15:34;19.60;99.90
46758;DHT22;32509;47.750;-3.396;2022-07-15T03:18:00;19.60;99.90
46758;DHT22;32509;47.750;-3.396;2022-07-15T03:20:26;19.50;99.90
46758;DHT22;32509;47.750;-3.396;2022-07-15T03:22:52;19.60;99.90
46758;DHT22;32509;47.750;-3.396;2022-07-15T03:25:18;19.60;99.90
46758;DHT22;32509;47.750;-3.396;2022-07-15T03:27:44;19.60;99.90
46758;DHT22;32509;47.750;-3.396;2022-07-15T03:30:09;19.60;99.90
46758;DHT22;32509;47.750;-3.396;2022-07-15T03:32:35;19.50;99.90
46758;DHT22;32509;47.750;-3.396;2022-07-15T03:35:01;19.40;99.90
46758;DHT22;32509;47.750;-3.396;2022-07-15T03:37:27;19.40;99.90
46758;DHT22;32509;47.750;-3.396;2022-07-15T03:39:53;19.40;99.90
46758;DHT22;32509;47.750;-3.396;2022-07-15T03:42:19;19.40;99.90
46758;DHT22;32509;47.750;-3.396;2022-07-15T03:44:44;19.50;99.90
46758;DHT22;32509;47.750;-3.396;2022-07-15T03:47:10;19.50;99.90
46758;DHT22;32509;47.750;-3.396;2022-07-15T03:49:36;19.50;99.90
46758;DHT22;32509;47.750;-3.396;2022-07-15T03:52:02;19.50;99.90
46758;DHT22;32509;47.750;-3.396;2022-07-15T03:54:28;19.50;99.90
46758;DHT22;32509;47.750;-3.396;2022-07-15T03:56:54;19.40;99.90
46758;DHT22;32509;47.750;-3.396;2022-07-15T03:59:21;19.40;99.90
46758;DHT22;32509;47.750;-3.396;2022-07-15T04:01:47;19.40;99.90
46758;DHT22;32509;47.750;-3.396;2022-07-15T04:04:17;19.40;99.90
46758;DHT22;32509;47.750;-3.396;2022-07-15T04:06:43;19.30;99.90
46758;DHT22;32509;47.750;-3.396;2022-07-15T04:09:09;19.30;99.90
46758;DHT22;32509;47.750;-3.396;2022-07-15T04:11:36;19.40;99.90
46758;DHT22;32509;47.750;-3.396;2022-07-15T04:14:02;19.40;99.90
46758;DHT22;32509;47.750;-3.396;2022-07-15T04:16:30;19.40;99.90
46758;DHT22;32509;47.750;-3.396;2022-07-15T04:18:56;19.40;99.90
46758;DHT22;32509;47.750;-3.396;2022-07-15T04:21:21;19.40;99.90
46758;DHT22;32509;47.750;-3.396;2022-07-15T04:23:47;19.40;99.90
46758;DHT22;32509;47.750;-3.396;2022-07-15T04:26:13;19.20;99.90
46758;DHT22;32509;47.750;-3.396;2022-07-15T04:28:38;19.20;99.90
46758;DHT22;32509;47.750;-3.396;2022-07-15T04:31:04;19.30;99.90
46758;DHT22;32509;47.750;-3.396;2022-07-15T04:33:30;19.30;99.90
46758;DHT22;32509;47.750;-3.396;2022-07-15T04:35:56;19.40;99.90
46758;DHT22;32509;47.750;-3.396;2022-07-15T04:38:22;19.40;99.90
46758;DHT22;32509;47.750;-3.396;2022-07-15T04:40:47;19.40;99.90
46758;DHT22;32509;47.750;-3.396;2022-07-15T04:43:13;19.40;99.90
46758;DHT22;32509;47.750;-3.396;2022-07-15T04:45:39;19.40;99.90
46758;DHT22;32509;47.750;-3.396;2022-07-15T04:48:06;19.30;99.90
46758;DHT22;32509;47.750;-3.396;2022-07-15T04:50:50;19.40;99.90
46758;DHT22;32509;47.750;-3.396;2022-07-15T04:53:20;19.40;99.90
46758;DHT22;32509;47.750;-3.396;2022-07-15T04:55:47;19.40;99.90
46758;DHT22;32509;47.750;-3.396;2022-07-15T04:58:13;19.40;99.90
46758;DHT22;32509;47.750;-3.396;2022-07-15T05:00:45;19.40;99.90
46758;DHT22;32509;47.750;-3.396;2022-07-15T05:03:11;19.40;99.90
46758;DHT22;32509;47.750;-3.396;2022-07-15T05:05:37;19.40;99.90
46758;DHT22;32509;47.750;-3.396;2022-07-15T05:08:03;19.40;99.90
46758;DHT22;32509;47.750;-3.396;2022-07-15T05:10:29;19.40;99.90
46758;DHT22;32509;47.750;-3.396;2022-07-15T05:12:55;19.50;99.90
46758;DHT22;32509;47.750;-3.396;2022-07-15T05:15:21;19.40;99.90
46758;DHT22;32509;47.750;-3.396;2022-07-15T05:17:47;19.40;99.90
46758;DHT22;32509;47.750;-3.396;2022-07-15T05:20:13;19.40;99.90
46758;DHT22;32509;47.750;-3.396;2022-07-15T05:22:39;19.50;99.90
46758;DHT22;32509;47.750;-3.396;2022-07-15T05:25:05;19.50;99.90
46758;DHT22;32509;47.750;-3.396;2022-07-15T05:27:31;19.40;99.90
46758;DHT22;32509;47.750;-3.396;2022-07-15T05:29:57;19.50;99.90
46758;DHT22;32509;47.750;-3.396;2022-07-15T05:32:22;19.50;99.90
46758;DHT22;32509;47.750;-3.396;2022-07-15T05:34:48;19.50;99.90
46758;DHT22;32509;47.750;-3.396;2022-07-15T05:37:14;19.50;99.90
46758;DHT22;32509;47.750;-3.396;2022-07-15T05:39:39;19.40;99.90
46758;DHT22;32509;47.750;-3.396;2022-07-15T05:42:22;19.40;99.90
46758;DHT22;32509;47.750;-3.396;2022-07-15T05:44:48;19.30;99.90
46758;DHT22;32509;47.750;-3.396;2022-07-15T05:47:15;19.40;99.90
46758;DHT22;32509;47.750;-3.396;2022-07-15T05:49:41;19.30;99.90
46758;DHT22;32509;47.750;-3.396;2022-07-15T05:52:07;19.50;99.90
46758;DHT22;32509;47.750;-3.396;2022-07-15T05:54:33;19.30;99.90
46758;DHT22;32509;47.750;-3.396;2022-07-15T05:56:58;19.40;99.90
46758;DHT22;32509;47.750;-3.396;2022-07-15T05:59:24;19.40;99.90
46758;DHT22;32509;47.750;-3.396;2022-07-15T06:01:50;19.50;99.90
46758;DHT22;32509;47.750;-3.396;2022-07-15T06:04:16;19.60;99.90
46758;DHT22;32509;47.750;-3.396;2022-07-15T06:06:42;19.60;99.90
46758;DHT22;32509;47.750;-3.396;2022-07-15T06:09:07;19.60;99.90
46758;DHT22;32509;47.750;-3.396;2022-07-15T06:11:34;19.70;99.90
46758;DHT22;32509;47.750;-3.396;2022-07-15T06:14:00;19.70;99.90
46758;DHT22;32509;47.750;-3.396;2022-07-15T06:16:26;19.60;99.90
46758;DHT22;32509;47.750;-3.396;2022-07-15T06:18:52;19.70;99.90
46758;DHT22;32509;47.750;-3.396;2022-07-15T06:21:18;19.80;99.90
46758;DHT22;32509;47.750;-3.396;2022-07-15T06:23:43;19.80;99.90
46758;DHT22;32509;47.750;-3.396;2022-07-15T06:26:09;19.80;99.90
46758;DHT22;32509;47.750;-3.396;2022-07-15T06:28:35;19.90;99.90
46758;DHT22;32509;47.750;-3.396;2022-07-15T06:31:01;19.90;99.90
46758;DHT22;32509;47.750;-3.396;2022-07-15T06:33:27;19.90;99.90
46758;DHT22;32509;47.750;-3.396;2022-07-15T06:35:53;19.90;99.90
46758;DHT22;32509;47.750;-3.396;2022-07-15T06:38:20;20.00;99.90
46758;DHT22;32509;47.750;-3.396;2022-07-15T06:40:46;20.00;99.90
46758;DHT22;32509;47.750;-3.396;2022-07-15T06:43:12;20.00;99.90
46758;DHT22;32509;47.750;-3.396;2022-07-15T06:45:38;20.00;99.90
46758;DHT22;32509;47.750;-3.396;2022-07-15T06:48:04;20.00;99.90
46758;DHT22;32509;47.750;-3.396;2022-07-15T06:50:30;20.10;99.90
46758;DHT22;32509;47.750;-3.396;2022-07-15T06:52:56;20.10;99.90
46758;DHT22;32509;47.750;-3.396;2022-07-15T06:55:22;20.00;99.90
46758;DHT22;32509;47.750;-3.396;2022-07-15T06:57:48;20.10;99.90
46758;DHT22;32509;47.750;-3.396;2022-07-15T07:00:14;20.20;99.90
46758;DHT22;32509;47.750;-3.396;2022-07-15T07:02:41;20.20;99.90
46758;DHT22;32509;47.750;-3.396;2022-07-15T07:05:07;20.30;99.90
46758;DHT22;32509;47.750;-3.396;2022-07-15T07:07:34;20.40;99.90
46758;DHT22;32509;47.750;-3.396;2022-07-15T07:10:00;20.40;99.90
46758;DHT22;32509;47.750;-3.396;2022-07-15T07:12:26;20.40;99.90
46758;DHT22;32509;47.750;-3.396;2022-07-15T07:14:52;20.50;99.90
46758;DHT22;32509;47.750;-3.396;2022-07-15T07:17:19;20.50;99.90
46758;DHT22;32509;47.750;-3.396;2022-07-15T07:19:45;20.60;99.90
46758;DHT22;32509;47.750;-3.396;2022-07-15T07:22:11;20.60;99.90
46758;DHT22;32509;47.750;-3.396;2022-07-15T07:24:37;20.60;99.90
46758;DHT22;32509;47.750;-3.396;2022-07-15T07:27:03;20.70;99.90
46758;DHT22;32509;47.750;-3.396;2022-07-15T07:29:28;20.70;99.90
46758;DHT22;32509;47.750;-3.396;2022-07-15T07:31:54;20.70;99.90
46758;DHT22;32509;47.750;-3.396;2022-07-15T07:34:20;20.80;99.90
46758;DHT22;32509;47.750;-3.396;2022-07-15T07:36:46;20.90;99.90
46758;DHT22;32509;47.750;-3.396;2022-07-15T07:39:14;20.90;99.90
46758;DHT22;32509;47.750;-3.396;2022-07-15T07:41:40;21.00;99.90
46758;DHT22;32509;47.750;-3.396;2022-07-15T07:44:06;21.00;99.90
46758;DHT22;32509;47.750;-3.396;2022-07-15T07:46:32;21.00;99.90
46758;DHT22;32509;47.750;-3.396;2022-07-15T07:48:58;21.10;99.90
46758;DHT22;32509;47.750;-3.396;2022-07-15T07:51:24;21.10;99.90
46758;DHT22;32509;47.750;-3.396;2022-07-15T07:53:50;21.20;99.90
46758;DHT22;32509;47.750;-3.396;2022-07-15T07:56:15;21.20;99.90
46758;DHT22;32509;47.750;-3.396;2022-07-15T07:58:41;21.20;99.90
46758;DHT22;32509;47.750;-3.396;2022-07-15T08:01:07;21.30;99.90
46758;DHT22;32509;47.750;-3.396;2022-07-15T08:03:34;21.40;99.90
46758;DHT22;32509;47.750;-3.396;2022-07-15T08:05:59;21.40;99.90
46758;DHT22;32509;47.750;-3.396;2022-07-15T08:08:25;21.50;99.90
46758;DHT22;32509;47.750;-3.396;2022-07-15T08:10:55;21.50;99.90
46758;DHT22;32509;47.750;-3.396;2022-07-15T08:13:23;21.60;99.90
46758;DHT22;32509;47.750;-3.396;2022-07-15T08:15:50;21.60;99.90
46758;DHT22;32509;47.750;-3.396;2022-07-15T08:18:17;21.60;99.90
46758;DHT22;32509;47.750;-3.396;2022-07-15T08:20:42;21.70;99.90
46758;DHT22;32509;47.750;-3.396;2022-07-15T08:23:08;21.70;99.90
46758;DHT22;32509;47.750;-3.396;2022-07-15T08:25:36;21.80;99.90
46758;DHT22;32509;47.750;-3.396;2022-07-15T08:28:03;21.90;99.90
46758;DHT22;32509;47.750;-3.396;2022-07-15T08:30:30;21.90;99.90
46758;DHT22;32509;47.750;-3.396;2022-07-15T08:32:56;22.00;99.90
46758;DHT22;32509;47.750;-3.396;2022-07-15T08:35:23;22.00;99.90
46758;DHT22;32509;47.750;-3.396;2022-07-15T08:37:49;22.00;99.90
46758;DHT22;32509;47.750;-3.396;2022-07-15T08:40:16;22.10;99.90
46758;DHT22;32509;47.750;-3.396;2022-07-15T08:42:42;22.10;99.90
46758;DHT22;32509;47.750;-3.396;2022-07-15T08:45:12;22.10;99.90
46758;DHT22;32509;47.750;-3.396;2022-07-15T08:47:43;22.20;99.90
46758;DHT22;32509;47.750;-3.396;2022-07-15T08:50:11;22.30;99.90
46758;DHT22;32509;47.750;-3.396;2022-07-15T08:52:38;22.30;99.90
46758;DHT22;32509;47.750;-3.396;2022-07-15T08:55:05;22.40;99.90
46758;DHT22;32509;47.750;-3.396;2022-07-15T08:57:32;22.40;99.90
46758;DHT22;32509;47.750;-3.396;2022-07-15T08:59:58;22.40;99.90
46758;DHT22;32509;47.750;-3.396;2022-07-15T09:02:24;22.50;99.90
46758;DHT22;32509;47.750;-3.396;2022-07-15T09:05:19;22.50;99.90
46758;DHT22;32509;47.750;-3.396;2022-07-15T09:08:00;22.50;99.90
46758;DHT22;32509;47.750;-3.396;2022-07-15T09:10:47;22.70;99.90
46758;DHT22;32509;47.750;-3.396;2022-07-15T09:13:36;22.70;99.90
46758;DHT22;32509;47.750;-3.396;2022-07-15T09:16:10;22.80;99.90
46758;DHT22;32509;47.750;-3.396;2022-07-15T09:18:37;22.80;99.90
46758;DHT22;32509;47.750;-3.396;2022-07-15T09:21:18;22.80;99.90
46758;DHT22;32509;47.750;-3.396;2022-07-15T09:23:44;22.90;99.90
46758;DHT22;32509;47.750;-3.396;2022-07-15T09:26:31;22.90;99.90
46758;DHT22;32509;47.750;-3.396;2022-07-15T09:29:03;22.90;99.90
46758;DHT22;32509;47.750;-3.396;2022-07-15T09:31:58;23.00;99.90
46758;DHT22;32509;47.750;-3.396;2022-07-15T09:35:05;23.00;99.40
46758;DHT22;32509;47.750;-3.396;2022-07-15T09:37:59;23.10;99.50
46758;DHT22;32509;47.750;-3.396;2022-07-15T09:40:25;23.10;99.40
46758;DHT22;32509;47.750;-3.396;2022-07-15T09:43:04;23.10;99.40
46758;DHT22;32509;47.750;-3.396;2022-07-15T09:45:32;23.20;98.80
46758;DHT22;32509;47.750;-3.396;2022-07-15T09:48:11;23.20;99.20
46758;DHT22;32509;47.750;-3.396;2022-07-15T09:50:40;23.30;98.50
46758;DHT22;32509;47.750;-3.396;2022-07-15T09:53:13;23.30;97.90
46758;DHT22;32509;47.750;-3.396;2022-07-15T09:55:40;23.40;99.50
46758;DHT22;32509;47.750;-3.396;2022-07-15T09:58:07;23.40;98.90
46758;DHT22;32509;47.750;-3.396;2022-07-15T10:00:34;23.50;98.00
46758;DHT22;32509;47.750;-3.396;2022-07-15T10:03:01;23.50;97.80
46758;DHT22;32509;47.750;-3.396;2022-07-15T10:05:27;23.60;97.80
46758;DHT22;32509;47.750;-3.396;2022-07-15T10:07:54;23.60;97.70
46758;DHT22;32509;47.750;-3.396;2022-07-15T10:10:23;23.60;97.40
46758;DHT22;32509;47.750;-3.396;2022-07-15T10:13:02;23.70;97.70
46758;DHT22;32509;47.750;-3.396;2022-07-15T10:15:54;23.70;97.50
46758;DHT22;32509;47.750;-3.396;2022-07-15T10:29:10;23.80;97.10
46758;DHT22;32509;47.750;-3.396;2022-07-15T10:31:39;23.90;96.70
46758;DHT22;32509;47.750;-3.396;2022-07-15T10:36:40;23.90;97.00
46758;DHT22;32509;47.750;-3.396;2022-07-15T10:39:07;23.90;96.80
46758;DHT22;32509;47.750;-3.396;2022-07-15T10:42:02;23.90;96.70
46758;DHT22;32509;47.750;-3.396;2022-07-15T10:44:49;24.10;96.30
46758;DHT22;32509;47.750;-3.396;2022-07-15T10:49:43;24.10;97.20
46758;DHT22;32509;47.750;-3.396;2022-07-15T10:52:17;24.20;97.00
46758;DHT22;32509;47.750;-3.396;2022-07-15T11:03:10;24.30;95.70
46758;DHT22;32509;47.750;-3.396;2022-07-15T11:13:42;24.40;95.80
46758;DHT22;32509;47.750;-3.396;2022-07-15T11:16:13;24.40;95.60
46758;DHT22;32509;47.750;-3.396;2022-07-15T11:18:52;24.50;94.80
46758;DHT22;32509;47.750;-3.396;2022-07-15T11:21:18;24.50;95.30
46758;DHT22;32509;47.750;-3.396;2022-07-15T11:23:47;24.60;95.10
46758;DHT22;32509;47.750;-3.396;2022-07-15T11:26:13;24.70;93.80
46758;DHT22;32509;47.750;-3.396;2022-07-15T11:28:51;24.80;93.60
46758;DHT22;32509;47.750;-3.396;2022-07-15T11:31:19;24.90;94.00
46758;DHT22;32509;47.750;-3.396;2022-07-15T11:33:46;24.80;94.90
46758;DHT22;32509;47.750;-3.396;2022-07-15T11:36:19;24.70;95.40
46758;DHT22;32509;47.750;-3.396;2022-07-15T11:38:47;24.90;94.20
46758;DHT22;32509;47.750;-3.396;2022-07-15T11:41:13;25.00;94.30
46758;DHT22;32509;47.750;-3.396;2022-07-15T11:44:08;24.90;94.20
46758;DHT22;32509;47.750;-3.396;2022-07-15T11:46:54;24.80;93.60
46758;DHT22;32509;47.750;-3.396;2022-07-15T11:49:30;24.70;95.60
46758;DHT22;32509;47.750;-3.396;2022-07-15T11:51:56;24.70;93.70
46758;DHT22;32509;47.750;-3.396;2022-07-15T11:54:22;24.90;93.70
46758;DHT22;32509;47.750;-3.396;2022-07-15T11:56:56;25.10;93.60
46758;DHT22;32509;47.750;-3.396;2022-07-15T11:59:22;25.10;93.30
46758;DHT22;32509;47.750;-3.396;2022-07-15T12:01:47;25.10;93.30
46758;DHT22;32509;47.750;-3.396;2022-07-15T12:04:14;25.10;92.20
46758;DHT22;32509;47.750;-3.396;2022-07-15T12:06:40;25.20;93.10
46758;DHT22;32509;47.750;-3.396;2022-07-15T12:09:06;25.30;91.20
46758;DHT22;32509;47.750;-3.396;2022-07-15T12:11:38;25.30;91.00
46758;DHT22;32509;47.750;-3.396;2022-07-15T12:14:10;25.30;92.30
46758;DHT22;32509;47.750;-3.396;2022-07-15T12:19:23;25.20;93.00
46758;DHT22;32509;47.750;-3.396;2022-07-15T12:21:51;25.40;92.00
46758;DHT22;32509;47.750;-3.396;2022-07-15T12:24:25;25.30;92.40
46758;DHT22;32509;47.750;-3.396;2022-07-15T12:29:29;25.30;92.40
46758;DHT22;32509;47.750;-3.396;2022-07-15T12:32:03;25.40;92.10
46758;DHT22;32509;47.750;-3.396;2022-07-15T12:37:17;25.40;91.50
46758;DHT22;32509;47.750;-3.396;2022-07-15T12:42:37;25.50;91.90
46758;DHT22;32509;47.750;-3.396;2022-07-15T12:45:14;25.60;91.50
46758;DHT22;32509;47.750;-3.396;2022-07-15T12:48:05;25.60;92.00
46758;DHT22;32509;47.750;-3.396;2022-07-15T12:53:02;25.50;91.70
46758;DHT22;32509;47.750;-3.396;2022-07-15T12:55:31;25.50;93.20
46758;DHT22;32509;47.750;-3.396;2022-07-15T12:58:11;25.60;92.20
46758;DHT22;32509;47.750;-3.396;2022-07-15T13:00:39;25.50;92.40
46758;DHT22;32509;47.750;-3.396;2022-07-15T13:03:10;25.70;91.80
46758;DHT22;32509;47.750;-3.396;2022-07-15T13:05:44;25.60;92.20
46758;DHT22;32509;47.750;-3.396;2022-07-15T13:08:16;25.60;91.20
46758;DHT22;32509;47.750;-3.396;2022-07-15T13:10:45;25.60;91.80
46758;DHT22;32509;47.750;-3.396;2022-07-15T13:13:12;25.70;90.80
46758;DHT22;32509;47.750;-3.396;2022-07-15T13:15:38;25.40;91.90
46758;DHT22;32509;47.750;-3.396;2022-07-15T13:18:04;25.40;91.40
46758;DHT22;32509;47.750;-3.396;2022-07-15T13:20:31;25.30;91.90
46758;DHT22;32509;47.750;-3.396;2022-07-15T13:22:57;25.50;91.80
46758;DHT22;32509;47.750;-3.396;2022-07-15T13:25:24;25.50;90.90
46758;DHT22;32509;47.750;-3.396;2022-07-15T13:27:49;25.50;91.60
46758;DHT22;32509;47.750;-3.396;2022-07-15T13:30:16;25.50;92.20
46758;DHT22;32509;47.750;-3.396;2022-07-15T13:32:42;25.60;90.90
46758;DHT22;32509;47.750;-3.396;2022-07-15T13:35:09;25.50;91.00
46758;DHT22;32509;47.750;-3.396;2022-07-15T13:37:35;25.60;90.20
46758;DHT22;32509;47.750;-3.396;2022-07-15T13:40:03;25.50;90.60
46758;DHT22;32509;47.750;-3.396;2022-07-15T13:42:29;25.50;90.60
46758;DHT22;32509;47.750;-3.396;2022-07-15T13:44:56;25.30;90.50
46758;DHT22;32509;47.750;-3.396;2022-07-15T13:47:25;25.30;90.80
46758;DHT22;32509;47.750;-3.396;2022-07-15T13:49:51;25.30;90.90
46758;DHT22;32509;47.750;-3.396;2022-07-15T13:52:49;25.30;91.20
46758;DHT22;32509;47.750;-3.396;2022-07-15T13:55:17;25.40;91.40
46758;DHT22;32509;47.750;-3.396;2022-07-15T13:57:43;25.40;91.00
46758;DHT22;32509;47.750;-3.396;2022-07-15T14:00:12;25.50;90.90
46758;DHT22;32509;47.750;-3.396;2022-07-15T14:02:38;25.50;90.90
46758;DHT22;32509;47.750;-3.396;2022-07-15T14:05:05;25.50;89.10
46758;DHT22;32509;47.750;-3.396;2022-07-15T14:07:32;25.50;90.10
46758;DHT22;32509;47.750;-3.396;2022-07-15T14:09:58;25.50;90.20
46758;DHT22;32509;47.750;-3.396;2022-07-15T14:12:24;25.40;90.40
46758;DHT22;32509;47.750;-3.396;2022-07-15T14:14:50;25.40;91.00
46758;DHT22;32509;47.750;-3.396;2022-07-15T14:17:16;25.50;90.50
46758;DHT22;32509;47.750;-3.396;2022-07-15T14:19:42;25.50;91.20
46758;DHT22;32509;47.750;-3.396;2022-07-15T14:22:08;25.40;91.30
46758;DHT22;32509;47.750;-3.396;2022-07-15T14:24:34;25.50;90.90
46758;DHT22;32509;47.750;-3.396;2022-07-15T14:27:00;25.20;92.10
46758;DHT22;32509;47.750;-3.396;2022-07-15T14:29:26;25.40;91.00
46758;DHT22;32509;47.750;-3.396;2022-07-15T14:31:52;25.30;91.20
46758;DHT22;32509;47.750;-3.396;2022-07-15T14:34:17;25.50;90.70
46758;DHT22;32509;47.750;-3.396;2022-07-15T14:36:43;25.40;90.80
46758;DHT22;32509;47.750;-3.396;2022-07-15T14:39:09;25.20;92.40
46758;DHT22;32509;47.750;-3.396;2022-07-15T14:41:35;25.10;91.90
46758;DHT22;32509;47.750;-3.396;2022-07-15T14:44:02;25.20;92.00
46758;DHT22;32509;47.750;-3.396;2022-07-15T14:46:28;25.20;91.70
46758;DHT22;32509;47.750;-3.396;2022-07-15T14:48:54;25.30;91.70
46758;DHT22;32509;47.750;-3.396;2022-07-15T14:51:20;25.20;91.80
46758;DHT22;32509;47.750;-3.396;2022-07-15T14:53:45;25.20;92.10
46758;DHT22;32509;47.750;-3.396;2022-07-15T14:56:11;25.40;92.20
46758;DHT22;32509;47.750;-3.396;2022-07-15T14:58:37;25.20;92.50
46758;DHT22;32509;47.750;-3.396;2022-07-15T15:01:03;25.20;92.00
46758;DHT22;32509;47.750;-3.396;2022-07-15T15:03:29;25.20;92.00
46758;DHT22;32509;47.750;-3.396;2022-07-15T15:05:55;25.10;92.30
46758;DHT22;32509;47.750;-3.396;2022-07-15T15:08:22;25.20;92.20
46758;DHT22;32509;47.750;-3.396;2022-07-15T15:10:48;25.00;93.80
46758;DHT22;32509;47.750;-3.396;2022-07-15T15:13:13;24.70;94.30
46758;DHT22;32509;47.750;-3.396;2022-07-15T15:15:39;24.90;93.90
46758;DHT22;32509;47.750;-3.396;2022-07-15T15:18:05;25.00;93.70
46758;DHT22;32509;47.750;-3.396;2022-07-15T15:20:31;25.00;93.60
46758;DHT22;32509;47.750;-3.396;2022-07-15T15:22:57;25.20;93.30
46758;DHT22;32509;47.750;-3.396;2022-07-15T15:25:22;25.10;93.00
46758;DHT22;32509;47.750;-3.396;2022-07-15T15:28:06;25.10;93.30
46758;DHT22;32509;47.750;-3.396;2022-07-15T15:30:33;25.30;93.20
46758;DHT22;32509;47.750;-3.396;2022-07-15T15:32:59;25.40;93.10
46758;DHT22;32509;47.750;-3.396;2022-07-15T15:35:25;25.40;93.10
46758;DHT22;32509;47.750;-3.396;2022-07-15T15:37:51;25.30;93.40
46758;DHT22;32509;47.750;-3.396;2022-07-15T15:40:17;25.30;93.00
46758;DHT22;32509;47.750;-3.396;2022-07-15T15:42:43;25.20;93.50
46758;DHT22;32509;47.750;-3.396;2022-07-15T15:45:09;25.30;93.80
46758;DHT22;32509;47.750;-3.396;2022-07-15T15:47:35;25.30;93.80
46758;DHT22;32509;47.750;-3.396;2022-07-15T15:50:01;25.20;93.20
46758;DHT22;32509;47.750;-3.396;2022-07-15T15:52:27;25.30;92.90
46758;DHT22;32509;47.750;-3.396;2022-07-15T15:54:53;25.10;94.10
46758;DHT22;32509;47.750;-3.396;2022-07-15T15:57:18;24.90;93.40
46758;DHT22;32509;47.750;-3.396;2022-07-15T15:59:44;25.10;93.60
46758;DHT22;32509;47.750;-3.396;2022-07-15T16:02:10;25.20;92.30
46758;DHT22;32509;47.750;-3.396;2022-07-15T16:04:36;25.20;93.40
46758;DHT22;32509;47.750;-3.396;2022-07-15T16:07:03;24.90;93.40